createdAt,value
2019-04-26T00:02:54.563Z,3.85
2019-04-26T00:06:59.228Z,3.60
2019-04-26T00:11:26.130Z,3.50
2019-04-26T00:15:50.127Z,3.87
2019-04-26T00:19:54.942Z,3.80
2019-04-26T00:24:00.256Z,3.70
2019-04-26T00:28:05.258Z,4.22
2019-04-26T00:32:10.686Z,4.05
2019-04-26T00:36:16.698Z,4.25
2019-04-26T00:40:22.455Z,4.20
2019-04-26T00:44:27.296Z,4.50
2019-04-26T00:48:33.403Z,4.58
2019-04-26T00:52:40.711Z,4.58
2019-04-26T00:56:45.929Z,4.65
2019-04-26T01:00:50.575Z,4.83
2019-04-26T01:04:55.441Z,4.45
2019-04-26T01:09:01.178Z,4.80
2019-04-26T01:13:07.685Z,5.00
2019-04-26T01:17:12.299Z,5.22
2019-04-26T01:21:20.541Z,4.92
2019-04-26T01:25:45.392Z,5.30
2019-04-26T01:29:53.679Z,4.83
2019-04-26T01:33:58.416Z,5.35
2019-04-26T01:38:05.607Z,5.10
2019-04-26T01:42:20.884Z,5.35
2019-04-26T01:46:33.068Z,5.33
2019-04-26T01:50:37.674Z,5.72
2019-04-26T01:54:44.495Z,6.03
2019-04-26T01:58:49.981Z,6.75
2019-04-26T02:02:57.978Z,6.15
2019-04-26T02:07:02.771Z,6.15
2019-04-26T02:11:07.468Z,6.47
2019-04-26T02:15:12.821Z,7.45
2019-04-26T02:19:17.585Z,7.08
2019-04-26T02:23:35.988Z,7.28
2019-04-26T02:27:40.741Z,7.72
2019-04-26T02:31:48.270Z,7.33
2019-04-26T02:35:53.297Z,7.30
2019-04-26T02:39:58.227Z,7.15
2019-04-26T02:44:06.355Z,7.53
2019-04-26T02:48:36.524Z,7.78
2019-04-26T02:52:49.255Z,7.92
2019-04-26T02:56:57.059Z,8.45
2019-04-26T03:01:02.766Z,7.75
2019-04-26T03:05:10.139Z,8.68
2019-04-26T03:09:16.389Z,8.53
2019-04-26T03:13:36.784Z,8.63
2019-04-26T03:18:17.458Z,8.45
2019-04-26T03:22:35.699Z,9.50
2019-04-26T03:26:53.286Z,9.30
2019-04-26T03:31:22.352Z,9.18
2019-04-26T03:35:55.933Z,9.03
2019-04-26T03:40:02.794Z,10.90
2019-04-26T03:44:29.637Z,9.40
2019-04-26T03:48:50.611Z,9.98
2019-04-26T03:53:16.774Z,10.08
2019-04-26T03:57:38.799Z,9.78
2019-04-26T04:01:55.384Z,10.70
2019-04-26T04:06:03.861Z,10.15
2019-04-26T04:10:17.777Z,10.68
2019-04-26T04:14:40.679Z,9.90
2019-04-26T04:18:53.915Z,10.37
2019-04-26T04:23:09.944Z,9.73
2019-04-26T04:27:23.287Z,11.00
2019-04-26T04:31:34.052Z,10.43
2019-04-26T04:35:49.322Z,9.75
2019-04-26T04:40:16.966Z,10.00
2019-04-26T04:45:12.826Z,10.25
2019-04-26T04:49:43.038Z,9.85
2019-04-26T04:53:58.689Z,10.82
2019-04-26T04:58:09.151Z,10.82
2019-04-26T05:02:47.160Z,10.38
2019-04-26T05:07:18.492Z,11.12
2019-04-26T05:11:35.405Z,11.57
2019-04-26T05:16:04.831Z,11.45
2019-04-26T05:20:32.681Z,11.68
2019-04-26T05:24:58.982Z,11.18
2019-04-26T05:29:38.549Z,11.25
2019-04-26T05:34:20.302Z,11.73
2019-04-26T05:38:49.082Z,10.70
2019-04-26T05:43:59.124Z,12.18
2019-04-26T05:48:33.973Z,12.60
2019-04-26T05:53:10.815Z,12.13
2019-04-26T05:58:04.320Z,13.08
2019-04-26T06:02:44.387Z,12.98
2019-04-26T06:07:19.625Z,12.43
2019-04-26T06:11:31.997Z,11.80
2019-04-26T06:16:04.868Z,12.88
2019-04-26T06:20:42.775Z,12.60
2019-04-26T06:25:14.283Z,10.85
2019-04-26T06:29:32.720Z,12.30
2019-04-26T06:33:55.072Z,11.03
2019-04-26T06:38:48.684Z,11.57
2019-04-26T06:43:06.245Z,11.08
2019-04-26T06:47:32.558Z,11.73
2019-04-26T06:51:43.794Z,10.70
2019-04-26T06:56:02.908Z,9.65
2019-04-26T07:00:21.190Z,9.40
2019-04-26T07:04:42.298Z,9.05
2019-04-26T07:08:57.734Z,9.20
2019-04-26T07:13:32.279Z,9.25
2019-04-26T07:17:51.660Z,9.00
2019-04-26T07:22:35.524Z,7.87
2019-04-26T07:27:13.465Z,8.00
2019-04-26T07:31:30.438Z,7.78
2019-04-26T07:36:27.145Z,7.62
2019-04-26T07:41:17.055Z,7.42
2019-04-26T07:45:45.405Z,8.18
2019-04-26T07:50:26.718Z,8.20
2019-04-26T07:55:08.625Z,8.48
2019-04-26T08:00:00.619Z,11.20
2019-04-26T08:04:11.458Z,8.03
2019-04-26T08:08:19.993Z,8.73
2019-04-26T08:12:28.580Z,7.90
2019-04-26T08:16:48.535Z,6.22
2019-04-26T08:20:58.520Z,6.97
2019-04-26T08:25:06.719Z,6.83
2019-04-26T08:29:14.754Z,7.95
2019-04-26T08:33:25.317Z,10.48
2019-04-26T08:37:49.922Z,6.25
2019-04-26T08:41:58.014Z,7.22
2019-04-26T08:46:36.282Z,7.00
2019-04-26T08:50:46.939Z,8.05
2019-04-26T08:54:55.349Z,7.08
2019-04-26T08:59:03.897Z,6.50
2019-04-26T09:03:32.461Z,11.22
2019-04-26T09:07:39.966Z,6.70
2019-04-26T09:11:58.920Z,11.12
2019-04-26T09:16:22.226Z,7.75
2019-04-26T09:20:29.417Z,6.28
2019-04-26T09:24:45.383Z,8.10
2019-04-26T09:29:14.079Z,8.40
2019-04-26T09:33:41.086Z,6.53
2019-04-26T09:37:45.965Z,5.65
2019-04-26T09:41:50.686Z,6.42
2019-04-26T09:46:12.838Z,6.72
2019-04-26T09:50:26.805Z,8.55
2019-04-26T09:54:31.459Z,6.83
2019-04-26T09:58:36.227Z,6.58
2019-04-26T10:02:41.367Z,6.28
2019-04-26T10:06:49.047Z,9.75
2019-04-26T10:10:55.199Z,12.37
2019-04-26T10:15:26.849Z,7.67
2019-04-26T10:19:41.084Z,9.08
2019-04-26T10:23:45.713Z,6.17
2019-04-26T10:27:51.315Z,6.22
2019-04-26T10:31:56.020Z,7.92
2019-04-26T10:36:00.961Z,7.80
2019-04-26T10:40:06.285Z,6.60
2019-04-26T10:44:10.982Z,7.40
2019-04-26T10:48:15.590Z,6.30
2019-04-26T10:52:30.324Z,6.33
2019-04-26T10:56:39.746Z,6.78
2019-04-26T11:00:48.351Z,6.45
2019-04-26T11:04:52.672Z,6.28
2019-04-26T11:08:57.514Z,5.75
2019-04-26T11:13:02.217Z,6.97
2019-04-26T11:17:11.587Z,6.35
2019-04-26T11:21:16.402Z,5.33
2019-04-26T11:25:20.788Z,7.17
2019-04-26T11:29:28.810Z,5.40
2019-04-26T11:33:32.219Z,5.30
2019-04-26T11:37:36.795Z,6.35
2019-04-26T11:41:41.420Z,8.33
2019-04-26T11:45:49.394Z,5.42
2019-04-26T11:49:52.415Z,6.92
2019-04-26T11:53:57.064Z,5.00
2019-04-26T11:58:02.098Z,5.90
2019-04-26T12:02:08.292Z,5.65
2019-04-26T12:06:21.454Z,6.10
2019-04-26T12:10:27.233Z,5.22
2019-04-26T12:14:33.548Z,16.45
2019-04-26T12:18:40.205Z,5.87
2019-04-26T12:22:45.410Z,4.45
2019-04-26T12:26:51.914Z,5.53
2019-04-26T12:30:58.512Z,4.62
2019-04-26T12:35:03.304Z,4.28
2019-04-26T12:39:09.939Z,4.08
2019-04-26T12:43:15.861Z,4.37
2019-04-26T12:47:24.507Z,3.60
2019-04-26T12:51:29.423Z,6.17
2019-04-26T12:55:34.106Z,3.50
2019-04-26T12:59:44.404Z,3.50
2019-04-26T13:03:47.066Z,2.98
2019-04-26T13:07:53.308Z,2.92
2019-04-26T13:12:05.878Z,2.75
2019-04-26T13:16:29.962Z,3.20
2019-04-26T13:20:34.762Z,3.50
2019-04-26T13:24:40.944Z,3.08
2019-04-26T13:28:46.221Z,2.98
2019-04-26T13:32:53.430Z,2.70
2019-04-26T13:36:59.126Z,3.20
2019-04-26T13:41:06.126Z,2.65
2019-04-26T13:45:28.770Z,2.25
2019-04-26T13:49:37.734Z,2.62
2019-04-26T13:53:42.410Z,2.35
2019-04-26T13:57:47.336Z,2.15
2019-04-26T14:01:52.044Z,2.22
2019-04-26T14:05:56.694Z,2.10
2019-04-26T14:10:01.633Z,3.10
2019-04-26T14:14:06.582Z,2.00
2019-04-26T14:18:11.265Z,2.20
2019-04-26T14:22:17.582Z,2.00
2019-04-26T14:26:27.098Z,2.40
2019-04-26T14:30:31.698Z,1.90
2019-04-26T14:34:40.255Z,1.75
2019-04-26T14:38:42.706Z,2.27
2019-04-26T14:42:48.870Z,1.90
2019-04-26T14:46:56.800Z,1.65
2019-04-26T14:51:08.048Z,2.72
2019-04-26T14:55:09.224Z,1.92
2019-04-26T14:59:13.830Z,1.98
2019-04-26T15:03:24.781Z,1.72
2019-04-26T15:07:32.472Z,2.10
2019-04-26T15:11:37.153Z,2.67
2019-04-26T15:15:45.801Z,1.87
2019-04-26T15:19:48.895Z,1.82
2019-04-26T15:23:55.325Z,6.50
2019-04-26T15:28:02.093Z,1.77
2019-04-26T15:32:06.619Z,1.75
2019-04-26T15:36:14.528Z,2.00
2019-04-26T15:40:36.327Z,2.50
2019-04-26T15:45:01.712Z,2.00
2019-04-26T15:49:36.403Z,1.87
2019-04-26T15:53:39.277Z,2.15
2019-04-26T15:57:43.906Z,4.97
2019-04-26T16:01:49.332Z,3.15
2019-04-26T16:05:54.164Z,2.30
2019-04-26T16:09:58.904Z,2.20
2019-04-26T16:14:03.512Z,2.02
2019-04-26T16:18:10.712Z,4.10
2019-04-26T16:22:14.439Z,2.10
2019-04-26T16:26:19.146Z,2.30
2019-04-26T16:30:37.523Z,2.12
2019-04-26T16:34:47.616Z,2.10
2019-04-26T16:38:56.142Z,1.92
2019-04-26T16:42:59.434Z,1.95
2019-04-26T16:47:05.671Z,2.65
2019-04-26T16:51:08.779Z,2.00
2019-04-26T16:55:18.349Z,2.35
2019-04-26T16:59:23.987Z,2.20
2019-04-26T17:03:27.202Z,1.62
2019-04-26T17:07:32.044Z,2.00
2019-04-26T17:11:41.134Z,2.83
2019-04-26T17:15:43.278Z,1.70
2019-04-26T17:19:49.165Z,2.05
2019-04-26T17:24:15.919Z,2.02
2019-04-26T17:28:23.013Z,1.80
2019-04-26T17:32:27.134Z,1.80
2019-04-26T17:36:34.325Z,1.75
2019-04-26T17:40:38.205Z,1.70
2019-04-26T17:44:43.209Z,1.72
2019-04-26T17:48:50.639Z,1.87
2019-04-26T17:52:55.695Z,1.80
2019-04-26T17:57:00.391Z,1.60
2019-04-26T18:01:05.477Z,1.90
2019-04-26T18:05:10.789Z,1.95
2019-04-26T18:09:38.002Z,2.52
2019-04-26T18:13:23.447Z,2.10
2019-04-26T18:17:51.610Z,2.52
2019-04-26T18:22:04.505Z,2.15
2019-04-26T18:26:09.127Z,2.12
2019-04-26T18:30:14.437Z,2.00
2019-04-26T18:34:19.443Z,2.20
2019-04-26T18:38:24.776Z,2.40
2019-04-26T18:42:29.597Z,2.05
2019-04-26T18:46:46.796Z,2.10
2019-04-26T18:50:47.040Z,4.30
2019-04-26T18:55:29.175Z,2.40
2019-04-26T18:59:31.399Z,5.87
2019-04-26T19:03:36.366Z,7.12
2019-04-26T19:07:41.036Z,4.42
2019-04-26T19:11:48.486Z,2.77
2019-04-26T19:16:17.124Z,11.78
2019-04-26T19:20:32.235Z,15.63
2019-04-26T19:24:38.654Z,7.25
2019-04-26T19:28:44.562Z,3.33
2019-04-26T19:32:49.464Z,12.05
2019-04-26T19:36:56.368Z,6.30
2019-04-26T19:41:02.641Z,8.40
2019-04-26T19:45:17.041Z,2.47
2019-04-26T19:49:44.650Z,3.70
2019-04-26T19:53:56.575Z,2.72
2019-04-26T19:58:03.885Z,6.50
2019-04-26T20:02:08.566Z,2.40
2019-04-26T20:06:18.669Z,3.30
2019-04-26T20:10:19.798Z,3.00
2019-04-26T20:14:39.319Z,3.85
2019-04-26T20:18:32.766Z,3.75
2019-04-26T20:22:38.033Z,4.75
2019-04-26T20:26:44.684Z,2.33
2019-04-26T20:31:08.809Z,2.40
2019-04-26T20:35:19.714Z,4.58
2019-04-26T20:39:25.015Z,4.05
2019-04-26T20:43:29.662Z,4.22
2019-04-26T20:47:34.239Z,4.17
2019-04-26T20:51:40.765Z,4.10
2019-04-26T20:55:47.149Z,5.05
2019-04-26T21:00:01.285Z,4.65
2019-04-26T21:04:01.917Z,4.25
2019-04-26T21:08:09.992Z,4.30
2019-04-26T21:12:18.324Z,4.00
2019-04-26T21:16:23.442Z,4.33
2019-04-26T21:20:34.501Z,4.53
2019-04-26T21:24:37.484Z,5.37
2019-04-26T21:28:47.945Z,4.80
2019-04-26T21:33:12.906Z,4.92
2019-04-26T21:37:35.841Z,5.58
2019-04-26T21:41:45.180Z,5.35
2019-04-26T21:45:47.410Z,5.75
2019-04-26T21:49:58.670Z,5.72
2019-04-26T21:53:58.499Z,5.20
2019-04-26T21:58:05.203Z,6.40
2019-04-26T22:02:10.148Z,5.95
2019-04-26T22:06:14.843Z,5.65
2019-04-26T22:10:26.933Z,5.80
2019-04-26T22:14:34.143Z,6.30
2019-04-26T22:19:03.826Z,7.42
2019-04-26T22:23:25.340Z,7.67
2019-04-26T22:27:30.199Z,8.35
2019-04-26T22:31:37.893Z,9.68
2019-04-26T22:35:43.229Z,11.33
2019-04-26T22:39:48.084Z,13.10
2019-04-26T22:44:07.901Z,17.98
2019-04-26T22:48:23.180Z,19.35
2019-04-26T22:52:23.538Z,17.67
2019-04-26T22:56:28.173Z,19.00
2019-04-26T23:00:37.876Z,21.37
2019-04-26T23:04:42.928Z,22.07
2019-04-26T23:08:47.638Z,17.10
2019-04-26T23:13:04.453Z,18.82
2019-04-26T23:17:20.270Z,13.88
2019-04-26T23:21:28.483Z,14.20
2019-04-26T23:25:34.352Z,9.35
2019-04-26T23:29:39.337Z,8.13
2019-04-26T23:33:44.043Z,8.98
2019-04-26T23:37:48.729Z,8.60
2019-04-26T23:41:53.975Z,7.58
2019-04-26T23:45:59.961Z,8.63
2019-04-26T23:50:05.110Z,8.75
2019-04-26T23:54:10.044Z,9.48
2019-04-26T23:58:15.766Z,11.33
